Spabunker 61 — E.A.H.E — position and weather

sailwx.info

Track history (hours):
 
Tides and Currents Weather Stations Pressure Air Temp Water Temp Dewpoint Dewpoint Depression Visibility Wind Speed Wind Dir Waves Ship Positions

Spabunker 61

Last reported at 2017-Nov-18 04:59 UTC. Time now 2017-Nov-18 08:28 UTC.
Position N 28°29' W 016°14'.

; draft 6.8 m.

Type: Ship (hazmat cat C). MMSI: 224608620.

Date/timePositionNaut miles runAvg speedWind from/ knotsBaromVisibWave heightAir tempDewpointWater temp
2017-Nov-18 04:59N 28°29' W 016°14'0 0.0
2017-Nov-18 04:30N 28°29' W 016°14'1 0.1
2017-Nov-17 19:31N 28°29' W 016°13'0 0.4
2017-Nov-17 19:30N 28°29' W 016°13'1 1.0
2017-Nov-17 19:00N 28°29' W 016°13'0 0.0
2017-Nov-17 18:28N 28°29' W 016°13'0 0.0
2017-Nov-17 17:59N 28°29' W 016°13'0 0.0
2017-Nov-17 17:30N 28°29' W 016°13'0 0.0
2017-Nov-17 17:00N 28°29' W 016°14'0 0.0
2017-Nov-17 16:28N 28°29' W 016°13'0 0.0
2017-Nov-17 15:59N 28°29' W 016°13'0 0.0
2017-Nov-17 15:29N 28°29' W 016°13'2 0.8
2017-Nov-17 13:39N 28°28' W 016°15'0 0.0
2017-Nov-17 11:02N 28°28' W 016°15'0 3.0
2017-Nov-17 11:00N 28°28' W 016°15'1 1.1
2017-Nov-17 10:01N 28°29' W 016°14'0 0.0
2017-Nov-17 09:49N 28°29' W 016°14'0 0.0
2017-Nov-17 09:30N 28°29' W 016°14'0 0.0
2017-Nov-17 08:10N 28°29' W 016°14'0 0.0
2017-Nov-17 07:59N 28°29' W 016°14'0 0.6
2017-Nov-17 07:28N 28°29' W 016°14'0 0.7
2017-Nov-17 06:55N 28°29' W 016°14'0 0.5
2017-Nov-17 06:26N 28°29' W 016°15'0 0.4
2017-Nov-17 05:52N 28°28' W 016°15'0 0.0
2017-Nov-17 05:18N 28°28' W 016°15'0 0.0
2017-Nov-17 03:49N 28°28' W 016°15'0 0.0
2017-Nov-17 02:51N 28°28' W 016°15'0 0.0
2017-Nov-17 02:26N 28°28' W 016°15'0 0.0
2017-Nov-17 01:52N 28°28' W 016°15'1 1.7
2017-Nov-17 01:30N 28°29' W 016°14'1 0.7
2017-Nov-17 00:44N 28°29' W 016°14'0 0.0
2017-Nov-17 00:25N 28°29' W 016°14'0 0.0
2017-Nov-16 23:57N 28°29' W 016°14'0 0.0
2017-Nov-16 23:27N 28°29' W 016°14'0 0.0
2017-Nov-16 22:51N 28°29' W 016°14'0 0.0
2017-Nov-16 22:30N 28°29' W 016°14'0 0.0
2017-Nov-16 21:55N 28°29' W 016°14'0 0.0
2017-Nov-16 21:29N 28°29' W 016°14'0 0.0
2017-Nov-16 19:22N 28°29' W 016°14'0 0.0
2017-Nov-16 19:00N 28°29' W 016°14'0 0.0
2017-Nov-16 08:52N 28°29' W 016°14'0 0.0
2017-Nov-16 06:38N 28°29' W 016°14'0 0.5
2017-Nov-16 06:30N 28°29' W 016°14'1 1.2
2017-Nov-16 05:52N 28°29' W 016°13'0 0.0
2017-Nov-16 05:17N 28°29' W 016°13'0 0.0
2017-Nov-16 05:00N 28°29' W 016°13'0 0.0
2017-Nov-16 04:23N 28°29' W 016°13'0 0.0
2017-Nov-16 03:57N 28°29' W 016°13'0 0.1
2017-Nov-16 03:14N 28°29' W 016°13'0 0.0
2017-Nov-16 02:50N 28°29' W 016°13'0 0.1
2017-Nov-16 02:30N 28°29' W 016°13'0 0.1
2017-Nov-16 02:00N 28°29' W 016°13'0 0.0
2017-Nov-16 01:28N 28°29' W 016°13'0 0.0
2017-Nov-16 00:58N 28°29' W 016°13'0 0.0
2017-Nov-16 00:28N 28°29' W 016°13'0 0.0
2017-Nov-15 23:58N 28°29' W 016°13'0 0.0
2017-Nov-15 23:24N 28°29' W 016°13'0 0.1
2017-Nov-15 22:59N 28°29' W 016°13'0 0.3
2017-Nov-15 22:29N 28°29' W 016°13'1 1.4
2017-Nov-15 22:00N 28°29' W 016°14'0 0.0
2017-Nov-15 20:35N 28°29' W 016°14'0 0.0
2017-Nov-15 17:52N 28°29' W 016°14'0 0.0
2017-Nov-15 16:17N 28°29' W 016°14'1 3.1
2017-Nov-15 15:52N 28°29' W 016°12'2 3.8
2017-Nov-15 15:26N 28°30' W 016°10'1 2.3
2017-Nov-15 14:54N 28°30' W 016°09'0 0.0
2017-Nov-15 14:28N 28°30' W 016°09'0 0.0
2017-Nov-15 13:59N 28°30' W 016°09'0 0.0
2017-Nov-15 13:30N 28°30' W 016°09'0 0.0
2017-Nov-15 12:56N 28°30' W 016°09'0 0.0
2017-Nov-15 12:25N 28°30' W 016°09'0 0.0
2017-Nov-15 11:56N 28°30' W 016°09'0 0.0
2017-Nov-15 10:34N 28°30' W 016°09'0 0.0
2017-Nov-15 10:11N 28°30' W 016°09'3 2.6
2017-Nov-15 09:06N 28°29' W 016°12'1 3.6
2017-Nov-15 08:55N 28°29' W 016°13'1 0.0
2017-Nov-14 14:12N 28°29' W 016°14'1 0.1
2017-Nov-14 07:33N 28°29' W 016°13'0 2.9
2017-Nov-14 07:28N 28°29' W 016°13'0 1.0
2017-Nov-14 07:00N 28°29' W 016°13'0 0.1
2017-Nov-14 06:30N 28°29' W 016°13'0 0.0
2017-Nov-14 05:30N 28°29' W 016°13'0 0.0
2017-Nov-14 02:48N 28°29' W 016°13'0 0.0
2017-Nov-13 23:48N 28°29' W 016°13'0 1.1
2017-Nov-13 23:26N 28°29' W 016°14'0 0.0
2017-Nov-13 02:00N 28°29' W 016°13'0 0.0
2017-Nov-13 01:30N 28°29' W 016°13'0 0.0
2017-Nov-13 01:00N 28°29' W 016°13'0 0.0
2017-Nov-13 00:29N 28°29' W 016°13'0 0.0
2017-Nov-12 23:51N 28°29' W 016°13'0 0.0
2017-Nov-12 23:14N 28°29' W 016°13'0 0.0
2017-Nov-12 22:35N 28°29' W 016°13'0 0.1
2017-Nov-12 22:29N 28°29' W 016°13'0 0.0
2017-Nov-12 20:59N 28°29' W 016°13'0 0.0
2017-Nov-12 20:29N 28°29' W 016°13'0 0.0
2017-Nov-12 20:00N 28°29' W 016°13'0 0.0
2017-Nov-12 18:58N 28°29' W 016°13'0 0.3
2017-Nov-12 18:26N 28°29' W 016°13'0 0.0
2017-Nov-12 17:14N 28°29' W 016°13'0 0.0
2017-Nov-12 16:57N 28°29' W 016°13'0 0.0
2017-Nov-12 16:30N 28°29' W 016°13'0 0.0
2017-Nov-12 16:00N 28°29' W 016°13'0 0.0
2017-Nov-12 15:29N 28°29' W 016°13'0 0.0
2017-Nov-12 15:00N 28°29' W 016°13'0 0.0
2017-Nov-12 14:29N 28°29' W 016°13'0 0.0
2017-Nov-12 14:00N 28°29' W 016°13'0 0.0
2017-Nov-12 13:30N 28°29' W 016°13'0 0.0
2017-Nov-12 12:59N 28°29' W 016°13'0 0.0
2017-Nov-12 12:30N 28°29' W 016°13'0 0.0
2017-Nov-12 12:00N 28°29' W 016°13'0 0.0
2017-Nov-12 11:30N 28°29' W 016°13'0 0.0
2017-Nov-12 10:58N 28°29' W 016°13'0 0.0
2017-Nov-12 10:29N 28°29' W 016°13'0 0.0
2017-Nov-12 10:00N 28°29' W 016°13'0 0.0
2017-Nov-12 09:29N 28°29' W 016°13'0 0.1
2017-Nov-12 09:00N 28°29' W 016°13'1 1.0
2017-Nov-12 08:30N 28°29' W 016°14'0 0.0
2017-Nov-12 08:00N 28°29' W 016°14'0 0.0
2017-Nov-12 07:30N 28°29' W 016°14'0 0.0
2017-Nov-12 07:00N 28°29' W 016°14'0 0.0
2017-Nov-12 06:30N 28°29' W 016°14'0 0.0
2017-Nov-12 05:46N 28°29' W 016°14'0 0.0
2017-Nov-12 05:30N 28°29' W 016°14'0 0.0
2017-Nov-12 05:00N 28°29' W 016°14'0 0.0
2017-Nov-12 04:28N 28°29' W 016°14'0 0.0
2017-Nov-12 04:00N 28°29' W 016°14'0 0.0
2017-Nov-12 03:30N 28°29' W 016°14'0 0.0
2017-Nov-12 03:00N 28°29' W 016°14'0 0.0
2017-Nov-12 02:30N 28°29' W 016°14'0 0.0
2017-Nov-12 02:00N 28°29' W 016°14'0 0.0
2017-Nov-12 01:30N 28°29' W 016°14'0 0.0
2017-Nov-12 01:00N 28°29' W 016°14'0 0.0
2017-Nov-12 00:30N 28°29' W 016°14'0 0.0
2017-Nov-12 00:00N 28°29' W 016°14'0 0.0
2017-Nov-11 23:30N 28°29' W 016°14'0 0.0
2017-Nov-11 23:00N 28°29' W 016°14'0 0.0
2017-Nov-11 22:30N 28°29' W 016°14'0 0.0
2017-Nov-11 22:00N 28°29' W 016°14'0 0.0
2017-Nov-11 21:30N 28°29' W 016°14'0 0.0
2017-Nov-11 21:00N 28°29' W 016°14'0 0.0
2017-Nov-11 20:30N 28°29' W 016°14'0 0.0
2017-Nov-11 20:00N 28°29' W 016°14'0 0.0
2017-Nov-11 19:30N 28°29' W 016°14'0 0.0
2017-Nov-11 19:00N 28°29' W 016°14'0 0.0
2017-Nov-11 18:30N 28°29' W 016°14'0 0.0
2017-Nov-11 18:00N 28°29' W 016°14'0 0.0
2017-Nov-11 17:30N 28°29' W 016°14'0 0.8
2017-Nov-11 17:00N 28°29' W 016°13'0 0.3
2017-Nov-11 16:30N 28°29' W 016°13'0 0.0
2017-Nov-11 16:00N 28°29' W 016°13'0 0.0
2017-Nov-11 15:30N 28°29' W 016°13'0 0.0
2017-Nov-11 15:00N 28°29' W 016°13'0 0.0
2017-Nov-11 14:30N 28°29' W 016°13'0 0.0
2017-Nov-11 14:00N 28°29' W 016°13'0 0.0
2017-Nov-11 13:30N 28°29' W 016°13'0 0.0
2017-Nov-11 13:00N 28°29' W 016°13'0 0.0
2017-Nov-11 12:30N 28°29' W 016°13'0 0.0
2017-Nov-11 12:00N 28°29' W 016°13'0 0.0
2017-Nov-11 11:30N 28°29' W 016°13'0 0.0
2017-Nov-11 11:00N 28°29' W 016°13'0 0.0
2017-Nov-11 10:30N 28°29' W 016°13'0 0.0
2017-Nov-11 10:00N 28°29' W 016°13'0 0.0
2017-Nov-11 09:28N 28°29' W 016°13'0 0.0
2017-Nov-11 09:00N 28°29' W 016°13'0 0.0
2017-Nov-11 08:30N 28°29' W 016°13'0 0.0
2017-Nov-11 08:00N 28°29' W 016°13'0 0.0
2017-Nov-11 07:30N 28°29' W 016°13'0 0.0
2017-Nov-11 07:00N 28°29' W 016°13'0 0.0
2017-Nov-11 06:30N 28°29' W 016°13'0 0.0
2017-Nov-11 05:59N 28°29' W 016°13'0 0.0
2017-Nov-11 05:30N 28°29' W 016°13'0 0.0
2017-Nov-11 04:59N 28°29' W 016°13'0 0.0
2017-Nov-11 04:30N 28°29' W 016°13'0 0.0
2017-Nov-11 04:00N 28°29' W 016°13'0 0.0
2017-Nov-11 03:28N 28°29' W 016°13'0 0.0
2017-Nov-11 02:55N 28°29' W 016°13'0 0.0
2017-Nov-11 02:30N 28°29' W 016°13'0 0.0
2017-Nov-11 01:59N 28°29' W 016°13'0 0.0
2017-Nov-11 01:23N 28°29' W 016°13'0 0.0
2017-Nov-11 01:00N 28°29' W 016°13'0 0.0
2017-Nov-11 00:30N 28°29' W 016°13'0 0.0
2017-Nov-11 00:00N 28°29' W 016°13'0 0.0
2017-Nov-10 23:30N 28°29' W 016°13'0 0.0
2017-Nov-10 22:55N 28°29' W 016°13'0 0.0
2017-Nov-10 22:30N 28°29' W 016°13'0 0.0
2017-Nov-10 21:43N 28°29' W 016°13'0 0.0
2017-Nov-10 21:27N 28°29' W 016°13'0 0.0
2017-Nov-10 20:59N 28°29' W 016°13'0 0.0
2017-Nov-10 20:30N 28°29' W 016°13'0 0.0
2017-Nov-10 19:42N 28°29' W 016°13'0 0.0
2017-Nov-10 18:58N 28°29' W 016°13'0 0.0
2017-Nov-10 18:20N 28°29' W 016°13'0 0.0
2017-Nov-10 17:50N 28°29' W 016°13'0 0.0
2017-Nov-10 16:56N 28°29' W 016°13'0 0.2
2017-Nov-10 14:56N 28°29' W 016°13'0 0.0
2017-Nov-10 11:55N 28°29' W 016°13'1 0.0
2017-Nov-09 22:45N 28°29' W 016°14'0 1.0
2017-Nov-09 22:30N 28°29' W 016°13'0 0.0
2017-Nov-09 21:54N 28°29' W 016°13'0 0.0
2017-Nov-09 21:14N 28°29' W 016°13'0 0.0
2017-Nov-09 20:48N 28°29' W 016°13'0 0.0
2017-Nov-09 20:12N 28°29' W 016°13'0 0.0
2017-Nov-09 20:00N 28°29' W 016°13'0 0.0
2017-Nov-09 19:21N 28°29' W 016°13'0 0.0
2017-Nov-09 19:00N 28°29' W 016°13'0 0.1
2017-Nov-09 13:56N 28°29' W 016°14'0 0.0
2017-Nov-09 13:30N 28°29' W 016°14'0 0.0
2017-Nov-09 12:56N 28°29' W 016°14'0 0.0
2017-Nov-09 12:30N 28°29' W 016°14'0 0.0
2017-Nov-09 11:58N 28°29' W 016°14'0 0.0
2017-Nov-09 11:30N 28°29' W 016°14'0 0.0
2017-Nov-09 10:58N 28°29' W 016°14'0 0.0
2017-Nov-09 10:28N 28°29' W 016°14'1 1.8
2017-Nov-09 10:00N 28°29' W 016°13'1 1.7
2017-Nov-09 09:24N 28°30' W 016°12'0 0.8
2017-Nov-09 08:59N 28°29' W 016°12'2 3.2
2017-Nov-09 08:29N 28°29' W 016°14'0 0.3
2017-Nov-09 08:00N 28°29' W 016°14'0 0.0
2017-Nov-09 07:30N 28°29' W 016°14'0 0.0
2017-Nov-09 06:59N 28°29' W 016°14'0 0.0
2017-Nov-09 06:30N 28°29' W 016°14'0 0.0
2017-Nov-09 05:55N 28°29' W 016°14'0 0.0
2017-Nov-09 05:30N 28°29' W 016°14'0 0.0
2017-Nov-09 04:58N 28°29' W 016°14'0 0.0
2017-Nov-09 04:30N 28°29' W 016°14'0 0.0
2017-Nov-09 04:00N 28°29' W 016°14'0 0.0
2017-Nov-09 03:29N 28°29' W 016°14'0 0.0
2017-Nov-09 02:59N 28°29' W 016°14'0 0.1
2017-Nov-09 02:19N 28°29' W 016°14'1 1.9
2017-Nov-09 01:57N 28°29' W 016°13'0 0.1
2017-Nov-09 01:22N 28°29' W 016°13'0 0.1
2017-Nov-09 00:50N 28°29' W 016°13'0 0.1
2017-Nov-09 00:28N 28°29' W 016°13'0 0.0
2017-Nov-08 23:40N 28°29' W 016°13'0 0.1
2017-Nov-08 23:26N 28°29' W 016°13'0 0.1
2017-Nov-08 22:59N 28°29' W 016°13'0 0.1
2017-Nov-08 22:22N 28°29' W 016°13'0 0.0
2017-Nov-08 21:56N 28°29' W 016°13'0 0.0
2017-Nov-08 21:27N 28°29' W 016°13'0 0.1
2017-Nov-08 20:55N 28°29' W 016°13'0 0.2
2017-Nov-08 20:28N 28°29' W 016°13'0 0.0
2017-Nov-08 19:58N 28°29' W 016°13'0 0.1
2017-Nov-08 19:30N 28°29' W 016°13'0 0.0
2017-Nov-08 18:57N 28°29' W 016°13'1 1.8
2017-Nov-08 18:30N 28°29' W 016°14'0 0.0
2017-Nov-08 17:56N 28°29' W 016°14'0 0.0
2017-Nov-08 17:30N 28°29' W 016°14'0 0.0
2017-Nov-08 16:58N 28°29' W 016°14'0 0.0
2017-Nov-08 16:30N 28°29' W 016°14'0 0.0
2017-Nov-08 15:34N 28°29' W 016°14'0 0.0
2017-Nov-08 15:12N 28°29' W 016°14'0 1.1
2017-Nov-08 14:59N 28°29' W 016°14'0 0.8
2017-Nov-08 14:27N 28°29' W 016°13'0 0.0
2017-Nov-08 13:56N 28°29' W 016°13'0 0.0
2017-Nov-08 13:19N 28°29' W 016°13'0 0.0
2017-Nov-08 12:58N 28°29' W 016°13'0 0.0
2017-Nov-08 12:29N 28°29' W 016°13'0 0.1
2017-Nov-08 12:00N 28°29' W 016°13'0 0.0
2017-Nov-08 11:28N 28°29' W 016°13'0 1.0
2017-Nov-08 10:58N 28°29' W 016°13'0 0.0
2017-Nov-08 10:30N 28°29' W 016°13'0 0.0
2017-Nov-08 09:49N 28°29' W 016°13'0 0.0
2017-Nov-08 09:27N 28°29' W 016°13'0 0.0
2017-Nov-08 09:00N 28°29' W 016°13'0 0.0
2017-Nov-08 08:30N 28°29' W 016°13'0 0.1
2017-Nov-08 07:56N 28°29' W 016°13'0 0.0
2017-Nov-08 07:12N 28°29' W 016°13'0 0.1
2017-Nov-08 06:55N 28°29' W 016°13'0 0.0
2017-Nov-08 06:16N 28°29' W 016°13'0 0.0
2017-Nov-08 05:53N 28°29' W 016°13'0 0.0
2017-Nov-08 05:30N 28°29' W 016°13'  
Track history (hours):
 
Tides and Currents Weather Stations Pressure Air Temp Water Temp Dewpoint Dewpoint Depression Visibility Wind Speed Wind Dir Waves Ship Positions

Spabunker 61

Last reported at 2017-Nov-18 04:59 UTC. Time now 2017-Nov-18 08:28 UTC.
Position N 28°29' W 016°14'.

; draft 6.8 m.

Type: Ship (hazmat cat C). MMSI: 224608620.

Date/timePositionNaut miles runAvg speedWind from/ knotsBaromVisibWave heightAir tempDewpointWater temp
2017-Nov-18 04:59N 28°29' W 016°14'0 0.0
2017-Nov-18 04:30N 28°29' W 016°14'1 0.1
2017-Nov-17 19:31N 28°29' W 016°13'0 0.4
2017-Nov-17 19:30N 28°29' W 016°13'1 1.0
2017-Nov-17 19:00N 28°29' W 016°13'0 0.0
2017-Nov-17 18:28N 28°29' W 016°13'0 0.0
2017-Nov-17 17:59N 28°29' W 016°13'0 0.0
2017-Nov-17 17:30N 28°29' W 016°13'0 0.0
2017-Nov-17 17:00N 28°29' W 016°14'0 0.0
2017-Nov-17 16:28N 28°29' W 016°13'0 0.0
2017-Nov-17 15:59N 28°29' W 016°13'0 0.0
2017-Nov-17 15:29N 28°29' W 016°13'2 0.8
2017-Nov-17 13:39N 28°28' W 016°15'0 0.0
2017-Nov-17 11:02N 28°28' W 016°15'0 3.0
2017-Nov-17 11:00N 28°28' W 016°15'1 1.1
2017-Nov-17 10:01N 28°29' W 016°14'0 0.0
2017-Nov-17 09:49N 28°29' W 016°14'0 0.0
2017-Nov-17 09:30N 28°29' W 016°14'0 0.0
2017-Nov-17 08:10N 28°29' W 016°14'0 0.0
2017-Nov-17 07:59N 28°29' W 016°14'0 0.6
2017-Nov-17 07:28N 28°29' W 016°14'0 0.7
2017-Nov-17 06:55N 28°29' W 016°14'0 0.5
2017-Nov-17 06:26N 28°29' W 016°15'0 0.4
2017-Nov-17 05:52N 28°28' W 016°15'0 0.0
2017-Nov-17 05:18N 28°28' W 016°15'0 0.0
2017-Nov-17 03:49N 28°28' W 016°15'0 0.0
2017-Nov-17 02:51N 28°28' W 016°15'0 0.0
2017-Nov-17 02:26N 28°28' W 016°15'0 0.0
2017-Nov-17 01:52N 28°28' W 016°15'1 1.7
2017-Nov-17 01:30N 28°29' W 016°14'1 0.7
2017-Nov-17 00:44N 28°29' W 016°14'0 0.0
2017-Nov-17 00:25N 28°29' W 016°14'0 0.0
2017-Nov-16 23:57N 28°29' W 016°14'0 0.0
2017-Nov-16 23:27N 28°29' W 016°14'0 0.0
2017-Nov-16 22:51N 28°29' W 016°14'0 0.0
2017-Nov-16 22:30N 28°29' W 016°14'0 0.0
2017-Nov-16 21:55N 28°29' W 016°14'0 0.0
2017-Nov-16 21:29N 28°29' W 016°14'0 0.0
2017-Nov-16 19:22N 28°29' W 016°14'0 0.0
2017-Nov-16 19:00N 28°29' W 016°14'0 0.0
2017-Nov-16 08:52N 28°29' W 016°14'0 0.0
2017-Nov-16 06:38N 28°29' W 016°14'0 0.5
2017-Nov-16 06:30N 28°29' W 016°14'1 1.2
2017-Nov-16 05:52N 28°29' W 016°13'0 0.0
2017-Nov-16 05:17N 28°29' W 016°13'0 0.0
2017-Nov-16 05:00N 28°29' W 016°13'0 0.0
2017-Nov-16 04:23N 28°29' W 016°13'0 0.0
2017-Nov-16 03:57N 28°29' W 016°13'0 0.1
2017-Nov-16 03:14N 28°29' W 016°13'0 0.0
2017-Nov-16 02:50N 28°29' W 016°13'0 0.1
2017-Nov-16 02:30N 28°29' W 016°13'0 0.1
2017-Nov-16 02:00N 28°29' W 016°13'0 0.0
2017-Nov-16 01:28N 28°29' W 016°13'0 0.0
2017-Nov-16 00:58N 28°29' W 016°13'0 0.0
2017-Nov-16 00:28N 28°29' W 016°13'0 0.0
2017-Nov-15 23:58N 28°29' W 016°13'0 0.0
2017-Nov-15 23:24N 28°29' W 016°13'0 0.1
2017-Nov-15 22:59N 28°29' W 016°13'0 0.3
2017-Nov-15 22:29N 28°29' W 016°13'1 1.4
2017-Nov-15 22:00N 28°29' W 016°14'0 0.0
2017-Nov-15 20:35N 28°29' W 016°14'0 0.0
2017-Nov-15 17:52N 28°29' W 016°14'0 0.0
2017-Nov-15 16:17N 28°29' W 016°14'1 3.1
2017-Nov-15 15:52N 28°29' W 016°12'2 3.8
2017-Nov-15 15:26N 28°30' W 016°10'1 2.3
2017-Nov-15 14:54N 28°30' W 016°09'0 0.0
2017-Nov-15 14:28N 28°30' W 016°09'0 0.0
2017-Nov-15 13:59N 28°30' W 016°09'0 0.0
2017-Nov-15 13:30N 28°30' W 016°09'0 0.0
2017-Nov-15 12:56N 28°30' W 016°09'0 0.0
2017-Nov-15 12:25N 28°30' W 016°09'0 0.0
2017-Nov-15 11:56N 28°30' W 016°09'0 0.0
2017-Nov-15 10:34N 28°30' W 016°09'0 0.0
2017-Nov-15 10:11N 28°30' W 016°09'3 2.6
2017-Nov-15 09:06N 28°29' W 016°12'1 3.6
2017-Nov-15 08:55N 28°29' W 016°13'1 0.0
2017-Nov-14 14:12N 28°29' W 016°14'1 0.1
2017-Nov-14 07:33N 28°29' W 016°13'0 2.9
2017-Nov-14 07:28N 28°29' W 016°13'0 1.0
2017-Nov-14 07:00N 28°29' W 016°13'0 0.1
2017-Nov-14 06:30N 28°29' W 016°13'0 0.0
2017-Nov-14 05:30N 28°29' W 016°13'0 0.0
2017-Nov-14 02:48N 28°29' W 016°13'0 0.0
2017-Nov-13 23:48N 28°29' W 016°13'0 1.1
2017-Nov-13 23:26N 28°29' W 016°14'0 0.0
2017-Nov-13 02:00N 28°29' W 016°13'0 0.0
2017-Nov-13 01:30N 28°29' W 016°13'0 0.0
2017-Nov-13 01:00N 28°29' W 016°13'0 0.0
2017-Nov-13 00:29N 28°29' W 016°13'0 0.0
2017-Nov-12 23:51N 28°29' W 016°13'0 0.0
2017-Nov-12 23:14N 28°29' W 016°13'0 0.0
2017-Nov-12 22:35N 28°29' W 016°13'0 0.1
2017-Nov-12 22:29N 28°29' W 016°13'0 0.0
2017-Nov-12 20:59N 28°29' W 016°13'0 0.0
2017-Nov-12 20:29N 28°29' W 016°13'0 0.0
2017-Nov-12 20:00N 28°29' W 016°13'0 0.0
2017-Nov-12 18:58N 28°29' W 016°13'0 0.3
2017-Nov-12 18:26N 28°29' W 016°13'0 0.0
2017-Nov-12 17:14N 28°29' W 016°13'0 0.0
2017-Nov-12 16:57N 28°29' W 016°13'0 0.0
2017-Nov-12 16:30N 28°29' W 016°13'0 0.0
2017-Nov-12 16:00N 28°29' W 016°13'0 0.0
2017-Nov-12 15:29N 28°29' W 016°13'0 0.0
2017-Nov-12 15:00N 28°29' W 016°13'0 0.0
2017-Nov-12 14:29N 28°29' W 016°13'0 0.0
2017-Nov-12 14:00N 28°29' W 016°13'0 0.0
2017-Nov-12 13:30N 28°29' W 016°13'0 0.0
2017-Nov-12 12:59N 28°29' W 016°13'0 0.0
2017-Nov-12 12:30N 28°29' W 016°13'0 0.0
2017-Nov-12 12:00N 28°29' W 016°13'0 0.0
2017-Nov-12 11:30N 28°29' W 016°13'0 0.0
2017-Nov-12 10:58N 28°29' W 016°13'0 0.0
2017-Nov-12 10:29N 28°29' W 016°13'0 0.0
2017-Nov-12 10:00N 28°29' W 016°13'0 0.0
2017-Nov-12 09:29N 28°29' W 016°13'0 0.1
2017-Nov-12 09:00N 28°29' W 016°13'1 1.0
2017-Nov-12 08:30N 28°29' W 016°14'0 0.0
2017-Nov-12 08:00N 28°29' W 016°14'0 0.0
2017-Nov-12 07:30N 28°29' W 016°14'0 0.0
2017-Nov-12 07:00N 28°29' W 016°14'0 0.0
2017-Nov-12 06:30N 28°29' W 016°14'0 0.0
2017-Nov-12 05:46N 28°29' W 016°14'0 0.0
2017-Nov-12 05:30N 28°29' W 016°14'0 0.0
2017-Nov-12 05:00N 28°29' W 016°14'0 0.0
2017-Nov-12 04:28N 28°29' W 016°14'0 0.0
2017-Nov-12 04:00N 28°29' W 016°14'0 0.0
2017-Nov-12 03:30N 28°29' W 016°14'0 0.0
2017-Nov-12 03:00N 28°29' W 016°14'0 0.0
2017-Nov-12 02:30N 28°29' W 016°14'0 0.0
2017-Nov-12 02:00N 28°29' W 016°14'0 0.0
2017-Nov-12 01:30N 28°29' W 016°14'0 0.0
2017-Nov-12 01:00N 28°29' W 016°14'0 0.0
2017-Nov-12 00:30N 28°29' W 016°14'0 0.0
2017-Nov-12 00:00N 28°29' W 016°14'0 0.0
2017-Nov-11 23:30N 28°29' W 016°14'0 0.0
2017-Nov-11 23:00N 28°29' W 016°14'0 0.0
2017-Nov-11 22:30N 28°29' W 016°14'0 0.0
2017-Nov-11 22:00N 28°29' W 016°14'0 0.0
2017-Nov-11 21:30N 28°29' W 016°14'0 0.0
2017-Nov-11 21:00N 28°29' W 016°14'0 0.0
2017-Nov-11 20:30N 28°29' W 016°14'0 0.0
2017-Nov-11 20:00N 28°29' W 016°14'0 0.0
2017-Nov-11 19:30N 28°29' W 016°14'0 0.0
2017-Nov-11 19:00N 28°29' W 016°14'0 0.0
2017-Nov-11 18:30N 28°29' W 016°14'0 0.0
2017-Nov-11 18:00N 28°29' W 016°14'0 0.0
2017-Nov-11 17:30N 28°29' W 016°14'0 0.8
2017-Nov-11 17:00N 28°29' W 016°13'0 0.3
2017-Nov-11 16:30N 28°29' W 016°13'0 0.0
2017-Nov-11 16:00N 28°29' W 016°13'0 0.0
2017-Nov-11 15:30N 28°29' W 016°13'0 0.0
2017-Nov-11 15:00N 28°29' W 016°13'0 0.0
2017-Nov-11 14:30N 28°29' W 016°13'0 0.0
2017-Nov-11 14:00N 28°29' W 016°13'0 0.0
2017-Nov-11 13:30N 28°29' W 016°13'0 0.0
2017-Nov-11 13:00N 28°29' W 016°13'0 0.0
2017-Nov-11 12:30N 28°29' W 016°13'0 0.0
2017-Nov-11 12:00N 28°29' W 016°13'0 0.0
2017-Nov-11 11:30N 28°29' W 016°13'0 0.0
2017-Nov-11 11:00N 28°29' W 016°13'0 0.0
2017-Nov-11 10:30N 28°29' W 016°13'0 0.0
2017-Nov-11 10:00N 28°29' W 016°13'0 0.0
2017-Nov-11 09:28N 28°29' W 016°13'0 0.0
2017-Nov-11 09:00N 28°29' W 016°13'0 0.0
2017-Nov-11 08:30N 28°29' W 016°13'0 0.0
2017-Nov-11 08:00N 28°29' W 016°13'0 0.0
2017-Nov-11 07:30N 28°29' W 016°13'0 0.0
2017-Nov-11 07:00N 28°29' W 016°13'0 0.0
2017-Nov-11 06:30N 28°29' W 016°13'0 0.0
2017-Nov-11 05:59N 28°29' W 016°13'0 0.0
2017-Nov-11 05:30N 28°29' W 016°13'0 0.0
2017-Nov-11 04:59N 28°29' W 016°13'0 0.0
2017-Nov-11 04:30N 28°29' W 016°13'0 0.0
2017-Nov-11 04:00N 28°29' W 016°13'0 0.0
2017-Nov-11 03:28N 28°29' W 016°13'0 0.0
2017-Nov-11 02:55N 28°29' W 016°13'0 0.0
2017-Nov-11 02:30N 28°29' W 016°13'0 0.0
2017-Nov-11 01:59N 28°29' W 016°13'0 0.0
2017-Nov-11 01:23N 28°29' W 016°13'0 0.0
2017-Nov-11 01:00N 28°29' W 016°13'0 0.0
2017-Nov-11 00:30N 28°29' W 016°13'0 0.0
2017-Nov-11 00:00N 28°29' W 016°13'0 0.0
2017-Nov-10 23:30N 28°29' W 016°13'0 0.0
2017-Nov-10 22:55N 28°29' W 016°13'0 0.0
2017-Nov-10 22:30N 28°29' W 016°13'0 0.0
2017-Nov-10 21:43N 28°29' W 016°13'0 0.0
2017-Nov-10 21:27N 28°29' W 016°13'0 0.0
2017-Nov-10 20:59N 28°29' W 016°13'0 0.0
2017-Nov-10 20:30N 28°29' W 016°13'0 0.0
2017-Nov-10 19:42N 28°29' W 016°13'0 0.0
2017-Nov-10 18:58N 28°29' W 016°13'0 0.0
2017-Nov-10 18:20N 28°29' W 016°13'0 0.0
2017-Nov-10 17:50N 28°29' W 016°13'0 0.0
2017-Nov-10 16:56N 28°29' W 016°13'0 0.2
2017-Nov-10 14:56N 28°29' W 016°13'0 0.0
2017-Nov-10 11:55N 28°29' W 016°13'1 0.0
2017-Nov-09 22:45N 28°29' W 016°14'0 1.0
2017-Nov-09 22:30N 28°29' W 016°13'0 0.0
2017-Nov-09 21:54N 28°29' W 016°13'0 0.0
2017-Nov-09 21:14N 28°29' W 016°13'0 0.0
2017-Nov-09 20:48N 28°29' W 016°13'0 0.0
2017-Nov-09 20:12N 28°29' W 016°13'0 0.0
2017-Nov-09 20:00N 28°29' W 016°13'0 0.0
2017-Nov-09 19:21N 28°29' W 016°13'0 0.0
2017-Nov-09 19:00N 28°29' W 016°13'0 0.1
2017-Nov-09 13:56N 28°29' W 016°14'0 0.0
2017-Nov-09 13:30N 28°29' W 016°14'0 0.0
2017-Nov-09 12:56N 28°29' W 016°14'0 0.0
2017-Nov-09 12:30N 28°29' W 016°14'0 0.0
2017-Nov-09 11:58N 28°29' W 016°14'0 0.0
2017-Nov-09 11:30N 28°29' W 016°14'0 0.0
2017-Nov-09 10:58N 28°29' W 016°14'0 0.0
2017-Nov-09 10:28N 28°29' W 016°14'1 1.8
2017-Nov-09 10:00N 28°29' W 016°13'1 1.7
2017-Nov-09 09:24N 28°30' W 016°12'0 0.8
2017-Nov-09 08:59N 28°29' W 016°12'2 3.2
2017-Nov-09 08:29N 28°29' W 016°14'0 0.3
2017-Nov-09 08:00N 28°29' W 016°14'0 0.0
2017-Nov-09 07:30N 28°29' W 016°14'0 0.0
2017-Nov-09 06:59N 28°29' W 016°14'0 0.0
2017-Nov-09 06:30N 28°29' W 016°14'0 0.0
2017-Nov-09 05:55N 28°29' W 016°14'0 0.0
2017-Nov-09 05:30N 28°29' W 016°14'0 0.0
2017-Nov-09 04:58N 28°29' W 016°14'0 0.0
2017-Nov-09 04:30N 28°29' W 016°14'0 0.0
2017-Nov-09 04:00N 28°29' W 016°14'0 0.0
2017-Nov-09 03:29N 28°29' W 016°14'0 0.0
2017-Nov-09 02:59N 28°29' W 016°14'0 0.1
2017-Nov-09 02:19N 28°29' W 016°14'1 1.9
2017-Nov-09 01:57N 28°29' W 016°13'0 0.1
2017-Nov-09 01:22N 28°29' W 016°13'0 0.1
2017-Nov-09 00:50N 28°29' W 016°13'0 0.1
2017-Nov-09 00:28N 28°29' W 016°13'0 0.0
2017-Nov-08 23:40N 28°29' W 016°13'0 0.1
2017-Nov-08 23:26N 28°29' W 016°13'0 0.1
2017-Nov-08 22:59N 28°29' W 016°13'0 0.1
2017-Nov-08 22:22N 28°29' W 016°13'0 0.0
2017-Nov-08 21:56N 28°29' W 016°13'0 0.0
2017-Nov-08 21:27N 28°29' W 016°13'0 0.1
2017-Nov-08 20:55N 28°29' W 016°13'0 0.2
2017-Nov-08 20:28N 28°29' W 016°13'0 0.0
2017-Nov-08 19:58N 28°29' W 016°13'0 0.1
2017-Nov-08 19:30N 28°29' W 016°13'0 0.0
2017-Nov-08 18:57N 28°29' W 016°13'1 1.8
2017-Nov-08 18:30N 28°29' W 016°14'0 0.0
2017-Nov-08 17:56N 28°29' W 016°14'0 0.0
2017-Nov-08 17:30N 28°29' W 016°14'0 0.0
2017-Nov-08 16:58N 28°29' W 016°14'0 0.0
2017-Nov-08 16:30N 28°29' W 016°14'0 0.0
2017-Nov-08 15:34N 28°29' W 016°14'0 0.0
2017-Nov-08 15:12N 28°29' W 016°14'0 1.1
2017-Nov-08 14:59N 28°29' W 016°14'0 0.8
2017-Nov-08 14:27N 28°29' W 016°13'0 0.0
2017-Nov-08 13:56N 28°29' W 016°13'0 0.0
2017-Nov-08 13:19N 28°29' W 016°13'0 0.0
2017-Nov-08 12:58N 28°29' W 016°13'0 0.0
2017-Nov-08 12:29N 28°29' W 016°13'0 0.1
2017-Nov-08 12:00N 28°29' W 016°13'0 0.0
2017-Nov-08 11:28N 28°29' W 016°13'0 1.0
2017-Nov-08 10:58N 28°29' W 016°13'0 0.0
2017-Nov-08 10:30N 28°29' W 016°13'0 0.0
2017-Nov-08 09:49N 28°29' W 016°13'0 0.0
2017-Nov-08 09:27N 28°29' W 016°13'0 0.0
2017-Nov-08 09:00N 28°29' W 016°13'0 0.0
2017-Nov-08 08:30N 28°29' W 016°13'0 0.1
2017-Nov-08 07:56N 28°29' W 016°13'0 0.0
2017-Nov-08 07:12N 28°29' W 016°13'0 0.1
2017-Nov-08 06:55N 28°29' W 016°13'0 0.0
2017-Nov-08 06:16N 28°29' W 016°13'0 0.0
2017-Nov-08 05:53N 28°29' W 016°13'0 0.0
2017-Nov-08 05:30N 28°29' W 016°13'  

Dump ship's entire track history